Thomasville, Alabama
Current Conditions -  °F | °C
As of 2:15 PM on Thursday 30 Oct 2014 (Local Time) from KDYA Reporting Station
Clear Clear  
Wind Chill: 69°   Ceiling: Unl
Heat Index: 69°   Visibility: 10mi
Dew Point: 32°   Wind: 9mph
Humidity: 25%   Direction: 290°WNW
Pressure: 30.05"   Gusts: NA
Location:  31.91°N, 87.74°W
Report Text: KDYA 301915Z AUTO 29008KT 10SM CLR 21/00 A3005 RMK AO2 T02071001
Loading
Personal Weather Stations






























Interactive Weather Map
Tropical Storm Tracking
New forecast layout! Learn more

10-Day Weather Forecast

Advertisements
Track Severe Weather on mobile